Latest Weather Observations for Toowoomba

IDQ60801

Issued at 1:32 pm EST Friday 4 September 2015 (issued every 30 minutes, with the page automatically refreshed every 10 minutes)

About weather observations | Map of weather stations | Latest weather observations for QLD | Other Formats
Station Details ID: 041529 Name: TOOWOOMBA AIRPORT Lat: -27.54 Lon: 151.91 Height: 640.9 m
Data from the previous 72 hours. | See also: Recent months at Toowoomba
Date/Time
EST
Temp
°C
App
Temp
°C
Dew
Point
Rel
Hum
%
Delta-T
°C
Wind Press
QNH
hPa
Press
MSL
hPa
Rain
since 9 am
mm
Dir
 
Spd
km/h
Gust
km/h
Spd
kts
Gust
kts
04/01:00pm 17.8 14.4 6.0 46 6.0 SE 13 20 7 11 1019.8 1018.0 0.0
04/12:30pm 17.9 15.4 8.2 53 5.1 S 11 17 6 9 1020.3 1018.5 0.0
04/12:00pm 16.3 13.6 7.3 55 4.6 SSW 11 15 6 8 1020.7 1018.9 0.0
04/11:30am 16.0 14.0 7.0 55 4.6 SE 7 19 4 10 1021.0 1019.2 0.0
04/11:00am 15.0 11.5 7.1 59 4.0 SW 15 20 8 11 1021.2 1019.4 0.0
04/10:30am 14.0 10.5 7.1 63 3.5 SSW 15 22 8 12 1021.3 1019.6 0.0
04/10:00am 13.0 9.6 6.1 63 3.4 SW 13 20 7 11 1021.6 1019.9 0.0
04/09:30am 12.8 8.8 6.8 67 3.0 SW 17 22 9 12 1021.7 1020.0 0.0
04/09:00am 11.8 7.3 6.1 68 2.8 SW 19 24 10 13 1021.3 1019.6 0.0
04/08:30am 11.0 7.4 6.7 75 2.1 SW 15 19 8 10 1021.0 1019.2 0.0
04/08:00am 9.4 5.5 7.0 85 1.2 SW 17 22 9 12 1020.5 1018.7 0.0
04/07:30am 7.8 4.2 6.7 93 0.5 WSW 15 20 8 11 1020.1 1018.4 0.0
04/07:00am 7.0 2.9 6.3 95 0.3 WSW 17 24 9 13 1019.7 1017.9 0.0
04/06:30am 6.5 1.9 5.8 95 0.3 WSW 19 24 10 13 1019.4 1017.6 0.0
04/06:00am 6.9 1.0 5.7 92 0.6 SSW 26 33 14 18 1018.7 1016.9 0.0
04/05:30am 7.2 0.5 5.7 90 0.7 SW 30 39 16 21 1018.0 1016.2 0.0
04/05:00am 6.8 1.2 5.4 91 0.6 SW 24 32 13 17 1017.9 1016.1 0.0
04/04:30am 6.6 1.7 5.1 90 0.7 WSW 20 28 11 15 1017.7 1015.9 0.0
04/04:00am 7.1 2.2 5.1 87 0.9 WSW 20 28 11 15 1017.6 1015.8 0.0
04/03:30am 7.1 2.1 4.8 85 1.0 WSW 20 28 11 15 1017.6 1015.8 0.0
04/03:00am 7.6 2.2 4.7 82 1.3 WSW 22 28 12 15 1017.7 1015.9 0.0
04/02:30am 8.0 3.2 4.6 79 1.6 WSW 19 24 10 13 1017.9 1016.1 0.0
04/02:00am 8.7 2.9 4.5 75 1.9 WSW 24 35 13 19 1017.7 1015.9 0.0
04/01:30am 9.2 3.0 4.4 72 2.2 WSW 26 32 14 17 1017.8 1016.0 0.0
04/01:00am 9.1 2.1 4.3 72 2.2 WSW 30 39 16 21 1017.6 1015.8 0.0
04/12:30am 9.5 2.2 4.3 70 2.4 WSW 32 43 17 23 1017.7 1015.9 0.0
04/12:00am 9.6 2.7 4.4 70 2.4 WSW 30 39 16 21 1018.1 1016.3 0.0
 
Date/Time
EST
Temp
°C
App
Temp
°C
Dew
Point
Rel
Hum
%
Delta-T
°C
Wind Press
QNH
hPa
Press
MSL
hPa
Rain
since 9 am
mm
Dir
 
Spd
km/h
Gust
km/h
Spd
kts
Gust
kts
03/11:30pm 10.5 3.6 4.4 66 2.8 WSW 30 39 16 21 1018.3 1016.5 0.0
03/11:00pm 10.6 4.4 4.5 66 2.8 WSW 26 35 14 19 1018.6 1016.8 0.0
03/10:30pm 10.4 4.0 5.2 70 2.5 WSW 28 39 15 21 1018.4 1016.6 0.0
03/10:00pm 10.3 4.3 5.3 71 2.4 WSW 26 35 14 19 1018.7 1016.9 0.0
03/09:30pm 10.6 5.0 5.6 71 2.4 WSW 24 32 13 17 1018.4 1016.6 0.0
03/09:00pm 10.5 5.3 5.5 71 2.4 WSW 22 28 12 15 1018.1 1016.3 0.0
03/08:30pm 10.8 5.5 5.1 68 2.7 WSW 22 32 12 17 1017.7 1015.9 0.0
03/08:00pm 11.3 6.0 5.0 65 3.0 WSW 22 30 12 16 1017.6 1015.8 0.0
03/07:30pm 12.2 6.4 4.2 58 3.7 WSW 24 32 13 17 1017.3 1015.5 0.0
03/07:00pm 13.4 6.6 2.9 49 4.8 W 28 39 15 21 1016.7 1014.9 0.0
03/06:30pm 14.0 6.4 2.9 47 5.1 W 32 41 17 22 1016.1 1014.3 0.0
03/06:00pm 14.7 6.9 2.9 45 5.5 W 33 50 18 27 1015.5 1013.6 0.0
03/05:51pm 14.8 7.3 3.3 46 5.4 W 32 50 17 27 1015.3 1013.4 0.0
03/05:30pm 15.1 7.4 3.6 46 5.4 W 33 46 18 25 1014.8 1013.0 0.0
03/05:04pm 15.9 7.8 3.4 43 5.9 W 35 54 19 29 1014.3 1012.4 0.0
03/05:00pm 15.9 7.4 3.4 43 5.9 W 37 54 20 29 1014.1 1012.2 0.0
03/04:30pm 16.7 7.8 3.0 40 6.5 W 39 59 21 32 1013.6 1011.7 0.0
03/04:00pm 16.2 6.9 2.9 41 6.3 W 41 59 22 32 1013.3 1011.5 0.0
03/03:30pm 17.3 7.7 3.2 39 6.7 W 43 63 23 34 1013.1 1011.3 0.0
03/03:00pm 18.7 10.7 3.7 37 7.3 W 35 57 19 31 1012.9 1011.0 0.0
03/02:30pm 18.1 8.6 2.0 34 7.5 WNW 41 61 22 33 1012.7 1010.8 0.0
03/02:12pm 18.3 9.1 1.3 32 7.9 W 39 57 21 31 1012.6 1010.7 0.0
03/02:00pm 17.9 8.3 1.0 32 7.8 WNW 41 57 22 31 1012.5 1010.6 0.0
03/01:35pm 18.0 9.2 1.5 33 7.7 WNW 37 56 20 30 1012.5 1010.6 0.0
03/01:30pm 17.9 8.7 1.0 32 7.8 WNW 39 56 21 30 1012.5 1010.6 0.0
03/01:03pm 17.0 8.6 1.4 35 7.2 WNW 35 54 19 29 1012.8 1010.9 0.0
03/01:00pm 17.5 8.7 1.5 34 7.4 WNW 37 54 20 29 1012.8 1010.9 0.0
03/12:48pm 17.1 9.1 1.9 36 7.1 WNW 33 57 18 31 1012.9 1011.0 0.0
03/12:30pm 17.3 9.7 2.9 38 6.8 WNW 32 44 17 24 1013.3 1011.5 0.0
03/12:00pm 16.2 8.4 2.6 40 6.4 W 33 46 18 25 1014.1 1012.2 0.0
03/11:30am 16.4 7.6 3.5 42 6.2 W 39 59 21 32 1014.9 1013.1 0.0
03/11:19am 16.3 8.1 2.7 40 6.4 W 35 61 19 33 1015.0 1013.2 0.0
03/11:00am 15.7 7.6 3.2 43 5.9 WSW 35 46 19 25 1015.4 1013.5 0.0
03/10:30am 15.8 8.9 4.8 48 5.4 W 30 39 16 21 1015.7 1013.8 0.0
03/10:00am 14.3 8.6 5.1 54 4.5 W 24 33 13 18 1015.9 1014.1 0.0
03/09:30am 13.7 7.2 4.6 54 4.4 WSW 28 33 15 18 1015.8 1014.0 0.0
03/09:00am 13.6 7.2 5.0 56 4.1 W 28 37 15 20 1015.6 1013.7 6.2
03/08:30am 13.9 9.2 9.3 74 2.4 W 24 35 13 19 1015.5 1013.6 6.2
03/08:08am 14.5 9.5 11.1 80 1.9 W 28 39 15 21 1015.3 1013.4 6.2
03/08:00am 14.1 9.1 11.1 82 1.6 W 28 39 15 21 1015.0 1013.2 6.2
03/07:42am 14.8 9.4 12.8 88 1.1 WNW 33 52 18 28 1014.6 1012.8 6.2
03/07:30am 15.6 11.3 15.4 99 0.1 WNW 32 46 17 25 1014.4 1012.5 6.2
03/07:23am 15.6 11.7 15.4 99 0.1 WNW 30 46 16 25 1014.3 1012.4 6.2
03/07:16am 15.6 12.1 15.4 99 0.1 WNW 28 46 15 25 1014.3 1012.4 6.2
03/07:07am 15.4 12.2 15.2 99 0.1 WNW 26 35 14 19 1014.2 1012.3 6.2
03/07:00am 15.3 12.0 15.1 99 0.1 NW 26 39 14 21 1014.2 1012.3 6.2
03/06:30am 15.2 11.9 15.0 99 0.1 NW 26 32 14 17 1013.9 1012.0 6.2
03/06:00am 15.1 12.5 14.9 99 0.1 NNW 22 33 12 18 1013.7 1011.8 6.2
03/05:30am 15.0 13.7 14.8 99 0.1 NW 15 19 8 10 1013.7 1011.8 6.0
03/05:28am 14.9 13.9 14.7 99 0.1 NW 13 19 7 10 1013.7 1011.8 5.8
03/05:03am 14.9 13.9 14.7 99 0.1 NNW 13 17 7 9 1013.8 1011.9 4.8
03/05:00am 15.0 14.1 14.8 99 0.1 NNW 13 20 7 11 1013.8 1011.9 4.4
03/04:30am 14.8 12.9 14.3 97 0.3 N 17 28 9 15 1013.3 1011.5 3.8
03/04:00am 14.7 12.2 14.2 97 0.3 N 20 32 11 17 1012.9 1011.0 3.4
03/03:30am 14.6 12.1 14.1 97 0.3 N 20 30 11 16 1013.4 1011.6 3.4
03/03:00am 14.5 12.1 13.9 96 0.3 NNE 19 26 10 14 1013.8 1011.9 3.4
03/02:53am 14.4 12.0 13.8 96 0.3 NNE 19 26 10 14 1013.8 1011.9 3.4
03/02:30am 13.2 11.8 12.3 94 0.5 NE 11 15 6 8 1014.0 1012.1 3.4
03/02:00am 14.2 12.0 13.2 94 0.6 NNE 17 22 9 12 1014.7 1012.9 3.4
03/01:30am 13.8 10.9 12.9 94 0.5 NNE 20 30 11 16 1015.3 1013.4 3.4
03/01:00am 13.7 10.4 12.8 94 0.5 NNE 22 35 12 19 1015.4 1013.5 3.4
03/12:58am 13.8 10.5 12.9 94 0.5 NNE 22 35 12 19 1015.4 1013.5 3.4
03/12:36am 13.4 10.3 12.3 93 0.6 N 20 28 11 15 1017.0 1015.1 2.6
03/12:30am 13.9 10.4 12.3 90 0.9 N 22 32 12 17 1017.1 1015.2 2.0
03/12:00am 13.0 10.5 10.9 87 1.1 ENE 15 22 8 12 1016.2 1014.4 1.4
 
Date/Time
EST
Temp
°C
App
Temp
°C
Dew
Point
Rel
Hum
%
Delta-T
°C
Wind Press
QNH
hPa
Press
MSL
hPa
Rain
since 9 am
mm
Dir
 
Spd
km/h
Gust
km/h
Spd
kts
Gust
kts
02/11:30pm 13.2 10.3 10.9 86 1.2 ENE 17 22 9 12 1015.5 1013.6 1.4
02/11:23pm 13.2 10.9 10.6 84 1.4 NNE 13 22 7 12 1016.4 1014.6 1.4
02/11:00pm 14.4 11.6 8.4 67 3.1 NW 13 17 7 9 1018.7 1016.9 0.0
02/10:30pm 14.6 10.9 6.4 58 4.1 ENE 15 19 8 10 1017.4 1015.6 0.0
02/10:00pm 14.7 10.6 6.3 57 4.2 ENE 17 20 9 11 1017.2 1015.4 0.0
02/09:30pm 14.6 10.0 5.7 55 4.4 ENE 19 24 10 13 1016.9 1015.0 0.0
02/09:00pm 15.0 10.3 6.0 55 4.5 E 20 24 11 13 1016.7 1014.9 0.0
02/08:30pm 15.2 10.1 6.0 54 4.6 E 22 26 12 14 1016.6 1014.8 0.0
02/08:00pm 15.3 10.7 6.6 56 4.4 E 20 24 11 13 1016.9 1015.0 0.0
02/07:30pm 15.8 11.3 6.8 55 4.6 E 20 30 11 16 1016.9 1015.0 0.0
02/07:00pm 16.6 12.0 6.4 51 5.2 E 20 24 11 13 1016.7 1014.9 0.0
02/06:30pm 17.3 12.4 5.3 45 6.0 E 20 26 11 14 1016.7 1014.9 0.0
02/06:00pm 18.6 13.4 3.3 36 7.4 E 20 30 11 16 1016.9 1015.0 0.0
02/05:30pm 18.9 14.3 3.9 37 7.3 ENE 17 20 9 11 1016.6 1014.8 0.0
02/05:00pm 19.8 15.4 4.7 37 7.6 E 17 20 9 11 1016.7 1014.9 0.0
02/04:30pm 20.1 15.3 4.6 36 7.8 E 19 22 10 12 1016.6 1014.8 0.0
02/04:00pm 20.9 16.9 4.9 35 8.1 E 15 20 8 11 1016.6 1014.8 0.0
02/03:30pm 21.7 17.1 5.6 35 8.3 E 19 22 10 12 1016.2 1014.4 0.0
02/03:00pm 22.1 17.7 4.6 32 8.9 E 17 24 9 13 1016.6 1014.8 0.0
02/02:30pm 21.5 17.4 4.1 32 8.7 ENE 15 24 8 13 1016.9 1015.0 0.0
02/02:00pm 23.0 18.3 0.8 23 10.5 NNW 15 24 8 13 1017.2 1015.4 0.0
02/01:30pm 22.7 17.2 0.5 23 10.5 NW 19 28 10 15 1017.7 1015.9 0.0
02/01:00pm 22.3 17.8 1.9 26 9.8 NW 15 32 8 17 1018.3 1016.5 0.0
02/12:30pm 21.1 16.6 2.4 29 9.0 NW 15 28 8 15 1019.1 1017.3 0.0
02/12:00pm 21.2 16.3 2.0 28 9.2 NW 17 26 9 14 1019.8 1018.0 0.0
02/11:30am 20.5 15.6 1.9 29 8.9 WNW 17 20 9 11 1020.1 1018.4 0.0
02/11:00am 20.1 15.5 1.5 29 8.7 NNW 15 20 8 11 1020.6 1018.8 0.0
02/10:30am 19.7 15.5 1.7 30 8.5 NNW 13 20 7 11 1021.0 1019.2 0.0
02/10:00am 18.6 13.8 0.2 29 8.3 N 15 22 8 12 1021.4 1019.7 0.0
02/09:30am 17.9 13.8 2.2 35 7.4 N 13 20 7 11 1021.5 1019.8 0.0
02/09:00am 17.0 13.6 1.8 36 7.0 N 9 13 5 7 1021.5 1019.8 0.0
02/08:30am 15.7 12.7 1.8 39 6.4 NNE 7 9 4 5 1021.3 1019.6 0.0
02/08:00am 14.7 11.9 3.2 46 5.4 E 7 9 4 5 1020.9 1019.1 0.0
02/07:30am 13.4 10.2 3.2 50 4.7 E 9 9 5 5 1020.5 1018.7 0.0
02/07:00am 12.2 9.5 2.4 51 4.4 ENE 6 6 3 3 1020.4 1018.6 0.0
02/06:30am 11.2 7.9 -0.9 43 5.0 S 6 7 3 4 1020.0 1018.3 0.0
02/06:00am 10.8 8.6 -1.3 43 4.9 CALM 0 0 0 0 1019.9 1018.2 0.0
02/05:30am 10.2 6.9 -0.9 46 4.6 W 6 7 3 4 1019.6 1017.8 0.0
02/05:00am 11.0 7.6 -0.5 45 4.8 SW 7 9 4 5 1019.1 1017.3 0.0
02/04:30am 10.4 6.8 0.4 50 4.2 SSW 9 13 5 7 1018.9 1017.1 0.0
02/04:00am 8.6 5.6 0.6 57 3.3 SSW 6 9 3 5 1018.9 1017.1 0.0
02/03:30am 8.8 5.8 1.0 58 3.3 SSW 6 7 3 4 1018.9 1017.1 0.0
02/03:00am 8.4 4.8 0.6 58 3.2 SSW 9 9 5 5 1018.9 1017.1 0.0
02/02:30am 8.7 5.1 0.4 56 3.5 SW 9 11 5 6 1019.1 1017.3 0.0
02/02:00am 9.2 5.6 0.6 55 3.6 WSW 9 11 5 6 1019.3 1017.5 0.0
02/01:30am 8.6 5.4 0.6 57 3.3 SW 7 9 4 5 1019.4 1017.6 0.0
02/01:00am 9.1 5.9 1.0 57 3.4 SW 7 9 4 5 1019.3 1017.5 0.0
02/12:30am 9.3 5.4 1.0 56 3.5 SSW 11 15 6 8 1019.5 1017.7 0.0
02/12:00am 8.4 4.3 0.1 56 3.4 SW 11 13 6 7 1019.7 1017.9 0.0
 
Date/Time
EST
Temp
°C
App
Temp
°C
Dew
Point
Rel
Hum
%
Delta-T
°C
Wind Press
QNH
hPa
Press
MSL
hPa
Rain
since 9 am
mm
Dir
 
Spd
km/h
Gust
km/h
Spd
kts
Gust
kts
01/11:30pm 9.4 4.7 0.8 55 3.6 SSW 15 17 8 9 1019.7 1017.9 0.0
01/11:00pm 9.2 5.1 -0.1 52 3.8 SSW 11 13 6 7 1019.6 1017.8 0.0
01/10:30pm 9.9 5.8 0.0 50 4.1 SSW 11 15 6 8 1019.7 1017.9 0.0
01/10:00pm 10.4 6.6 -0.4 47 4.5 SSW 9 11 5 6 1019.5 1017.7 0.0
01/09:30pm 10.2 6.9 -0.9 46 4.6 SW 6 7 3 4 1019.4 1017.6 0.0
01/09:00pm 10.5 7.2 -0.9 45 4.7 WSW 6 9 3 5 1019.3 1017.5 0.0
01/08:30pm 10.5 6.6 -1.2 44 4.8 SW 9 11 5 6 1019.1 1017.3 0.0
01/08:00pm 10.8 6.3 -0.6 45 4.7 SW 13 17 7 9 1018.8 1017.0 0.0
01/07:30pm 11.8 7.5 -1.3 40 5.4 WSW 11 13 6 7 1018.4 1016.6 0.0
01/07:00pm 11.7 7.1 -1.4 40 5.4 WSW 13 15 7 8 1018.2 1016.4 0.0
01/06:30pm 12.7 8.1 -1.2 38 5.8 WSW 13 15 7 8 1018.1 1016.3 0.0
01/06:00pm 13.5 8.5 -1.3 36 6.2 WSW 15 19 8 10 1017.8 1016.0 0.0
01/05:30pm 15.5 10.0 -2.0 30 7.4 WSW 17 22 9 12 1017.5 1015.7 0.0
01/05:00pm 16.8 10.8 -2.8 26 8.2 WSW 19 24 10 13 1017.3 1015.5 0.0
01/04:30pm 17.7 11.2 -2.6 25 8.6 WSW 22 28 12 15 1017.1 1015.2 0.0
01/04:00pm 17.9 11.8 -2.4 25 8.7 W 20 30 11 16 1017.0 1015.1 0.0
01/03:30pm 18.5 12.2 -1.3 26 8.7 WSW 22 30 12 16 1016.9 1015.0 0.0
01/03:00pm 18.5 12.1 -1.9 25 8.9 W 22 30 12 16 1017.0 1015.1 0.0
01/02:30pm 18.5 12.3 -3.0 23 9.1 W 20 30 11 16 1017.3 1015.5 0.0
01/02:00pm 18.0 11.5 -2.3 25 8.7 W 22 28 12 15 1017.4 1015.6 0.0

Other Formats:

Comma delimited format used in spreadsheet applications
http://www.bom.gov.au/fwo/IDQ60801/IDQ60801.95551.axf

JavaScript Object Notation format (JSON) in row-major order
http://www.bom.gov.au/fwo/IDQ60801/IDQ60801.95551.json